createdAt,value
2023-01-18T00:01:14.132Z,5.15
2023-01-18T00:03:42.250Z,4.95
2023-01-18T00:06:10.399Z,4.53
2023-01-18T00:08:38.748Z,4.85
2023-01-18T00:11:08.114Z,5.57
2023-01-18T00:13:35.449Z,4.83
2023-01-18T00:16:07.139Z,5.22
2023-01-18T00:18:36.040Z,5.32
2023-01-18T00:21:04.240Z,4.40
2023-01-18T00:23:30.978Z,5.60
2023-01-18T00:26:05.501Z,5.57
2023-01-18T00:28:32.577Z,7.82
2023-01-18T00:30:59.337Z,5.07
2023-01-18T00:33:26.119Z,4.68
2023-01-18T00:36:01.458Z,4.82
2023-01-18T00:38:29.492Z,6.05
2023-01-18T00:40:56.448Z,5.88
2023-01-18T00:43:38.568Z,4.78
2023-01-18T00:46:09.522Z,4.13
2023-01-18T00:48:37.198Z,4.55
2023-01-18T00:51:04.457Z,6.10
2023-01-18T00:53:32.493Z,6.68
2023-01-18T00:55:59.232Z,5.28
2023-01-18T00:58:26.094Z,4.97
2023-01-18T01:00:53.559Z,4.25
2023-01-18T01:03:21.216Z,5.53
2023-01-18T01:06:06.938Z,5.35
2023-01-18T01:08:34.467Z,5.57
2023-01-18T01:11:05.811Z,4.35
2023-01-18T01:13:51.382Z,5.93
2023-01-18T01:16:36.791Z,6.68
2023-01-18T01:19:22.337Z,6.60
2023-01-18T01:22:07.841Z,7.07
2023-01-18T01:24:53.865Z,5.85
2023-01-18T01:27:20.693Z,5.18
2023-01-18T01:29:47.386Z,6.70
2023-01-18T01:32:14.149Z,5.63
2023-01-18T01:34:40.836Z,5.32
2023-01-18T01:37:07.654Z,5.22
2023-01-18T01:39:34.416Z,5.65
2023-01-18T01:42:01.247Z,5.60
2023-01-18T01:44:30.073Z,5.13
2023-01-18T01:47:21.584Z,6.28
2023-01-18T01:49:56.262Z,6.05
2023-01-18T01:52:33.653Z,5.45
2023-01-18T01:55:07.253Z,5.75
2023-01-18T01:57:54.650Z,6.13
2023-01-18T02:00:25.899Z,6.15
2023-01-18T02:03:00.638Z,4.57
2023-01-18T02:05:29.652Z,4.63
2023-01-18T02:07:59.527Z,5.53
2023-01-18T02:10:27.198Z,4.75
2023-01-18T02:12:55.060Z,5.20
2023-01-18T02:15:26.720Z,4.95
2023-01-18T02:18:15.148Z,5.60
2023-01-18T02:20:44.929Z,4.28
2023-01-18T02:23:11.600Z,4.82
2023-01-18T02:26:23.304Z,4.88
2023-01-18T02:29:17.565Z,5.20
2023-01-18T02:31:59.191Z,6.15
2023-01-18T02:34:48.371Z,5.07
2023-01-18T02:37:40.022Z,5.15
2023-01-18T02:40:22.773Z,3.70
2023-01-18T02:43:08.379Z,5.93
2023-01-18T02:46:00.782Z,4.65
2023-01-18T02:48:34.981Z,3.83
2023-01-18T02:51:01.907Z,3.90
2023-01-18T02:53:29.668Z,3.00
2023-01-18T02:56:08.982Z,3.72
2023-01-18T02:59:01.132Z,3.73
2023-01-18T03:01:38.311Z,2.92
2023-01-18T03:04:12.909Z,4.43
2023-01-18T03:06:42.146Z,3.50
2023-01-18T03:09:09.201Z,3.57
2023-01-18T03:11:45.107Z,3.15
2023-01-18T03:14:32.893Z,3.65
2023-01-18T03:17:18.496Z,2.97
2023-01-18T03:20:06.226Z,2.22
2023-01-18T03:23:24.629Z,3.63
2023-01-18T03:25:55.926Z,2.38
2023-01-18T03:28:51.470Z,2.38
2023-01-18T03:31:43.488Z,2.88
2023-01-18T03:34:14.128Z,2.35
2023-01-18T03:36:47.748Z,1.77
2023-01-18T03:39:28.382Z,2.55
2023-01-18T03:42:00.666Z,1.65
2023-01-18T03:44:42.161Z,2.22
2023-01-18T03:47:09.010Z,2.40
2023-01-18T03:49:36.351Z,2.08
2023-01-18T03:52:19.318Z,2.08
2023-01-18T03:54:55.806Z,2.63
2023-01-18T03:57:43.071Z,2.47
2023-01-18T04:00:11.582Z,1.77
2023-01-18T04:02:38.439Z,2.25
2023-01-18T04:05:07.011Z,2.63
2023-01-18T04:07:33.876Z,2.28
2023-01-18T04:10:01.266Z,2.35
2023-01-18T04:12:28.213Z,2.13
2023-01-18T04:14:54.944Z,2.33
2023-01-18T04:17:21.699Z,3.38
2023-01-18T04:19:48.451Z,2.90
2023-01-18T04:22:15.236Z,3.60
2023-01-18T04:24:41.977Z,2.22
2023-01-18T04:27:08.764Z,2.38
2023-01-18T04:29:35.648Z,2.25
2023-01-18T04:34:36.849Z,2.72
2023-01-18T04:37:03.650Z,1.92
2023-01-18T04:39:30.350Z,2.78
2023-01-18T04:41:57.378Z,2.72
2023-01-18T04:44:24.191Z,2.15
2023-01-18T04:46:51.250Z,2.67
2023-01-18T04:49:18.163Z,3.05
2023-01-18T04:51:46.256Z,3.17
2023-01-18T04:54:15.655Z,1.92
2023-01-18T04:56:42.390Z,3.23
2023-01-18T04:59:13.557Z,1.17
2023-01-18T05:01:40.385Z,1.88
2023-01-18T05:04:07.200Z,2.38
2023-01-18T05:06:33.915Z,1.50
2023-01-18T05:09:00.611Z,1.13
2023-01-18T05:11:27.354Z,2.05
2023-01-18T05:13:54.111Z,1.13
2023-01-18T05:16:22.866Z,1.70
2023-01-18T05:18:50.287Z,1.38
2023-01-18T05:21:17.051Z,1.67
2023-01-18T05:23:43.923Z,2.58
2023-01-18T05:26:16.762Z,1.85
2023-01-18T05:28:44.537Z,1.90
2023-01-18T05:31:12.370Z,1.50
2023-01-18T05:33:39.508Z,2.67
2023-01-18T05:36:06.872Z,2.72
2023-01-18T05:38:33.693Z,2.38
2023-01-18T05:41:00.402Z,2.20
2023-01-18T05:43:28.815Z,2.10
2023-01-18T05:45:55.829Z,2.45
2023-01-18T05:48:24.023Z,3.67
2023-01-18T05:50:50.832Z,2.83
2023-01-18T05:53:20.599Z,2.95
2023-01-18T05:55:55.640Z,3.17
2023-01-18T05:58:22.406Z,2.70
2023-01-18T06:00:49.339Z,4.82
2023-01-18T06:03:16.145Z,2.25
2023-01-18T06:05:42.872Z,2.10
2023-01-18T06:08:09.557Z,4.82
2023-01-18T06:10:36.288Z,3.15
2023-01-18T06:13:02.969Z,3.78
2023-01-18T06:15:29.657Z,2.63
2023-01-18T06:17:56.483Z,2.70
2023-01-18T06:20:23.155Z,3.88
2023-01-18T06:22:49.898Z,4.18
2023-01-18T06:25:16.805Z,3.13
2023-01-18T06:27:43.520Z,3.30
2023-01-18T06:30:11.085Z,2.13
2023-01-18T06:32:37.939Z,5.70
2023-01-18T06:35:05.036Z,3.78
2023-01-18T06:37:31.720Z,3.83
2023-01-18T06:39:59.095Z,2.55
2023-01-18T06:42:26.495Z,2.95
2023-01-18T06:44:53.180Z,4.38
2023-01-18T06:47:20.698Z,3.08
2023-01-18T06:49:48.132Z,3.65
2023-01-18T06:52:15.987Z,2.70
2023-01-18T06:54:42.694Z,2.53
2023-01-18T06:57:09.496Z,3.00
2023-01-18T06:59:36.251Z,3.10
2023-01-18T07:02:03.070Z,5.10
2023-01-18T07:04:29.837Z,3.50
2023-01-18T07:06:56.583Z,2.63
2023-01-18T07:09:23.260Z,2.83
2023-01-18T07:11:50.089Z,4.55
2023-01-18T07:14:16.844Z,2.53
2023-01-18T07:16:44.069Z,5.38
2023-01-18T07:19:10.913Z,2.55
2023-01-18T07:21:37.624Z,3.75
2023-01-18T07:24:04.595Z,1.88
2023-01-18T07:26:31.323Z,1.98
2023-01-18T07:28:58.137Z,2.38
2023-01-18T07:31:25.183Z,2.78
2023-01-18T07:33:52.319Z,2.88
2023-01-18T07:36:20.544Z,2.15
2023-01-18T07:38:49.012Z,3.45
2023-01-18T07:41:16.915Z,4.82
2023-01-18T07:43:44.775Z,2.47
2023-01-18T07:46:14.096Z,1.95
2023-01-18T07:48:40.892Z,1.97
2023-01-18T07:51:09.660Z,2.22
2023-01-18T07:53:37.580Z,1.92
2023-01-18T07:56:12.589Z,4.18
2023-01-18T07:58:39.826Z,4.65
2023-01-18T08:01:09.981Z,2.22
2023-01-18T08:06:05.953Z,4.82
2023-01-18T08:08:33.239Z,2.10
2023-01-18T08:11:02.091Z,3.72
2023-01-18T08:13:29.147Z,2.55
2023-01-18T08:15:59.030Z,3.28
2023-01-18T08:18:25.840Z,2.30
2023-01-18T08:20:55.036Z,2.00
2023-01-18T08:23:22.232Z,3.00
2023-01-18T08:25:49.637Z,1.88
2023-01-18T08:28:16.929Z,3.92
2023-01-18T08:30:46.346Z,2.20
2023-01-18T08:33:13.773Z,4.63
2023-01-18T08:35:45.831Z,2.17
2023-01-18T08:38:15.390Z,7.35
2023-01-18T08:40:42.627Z,1.77
2023-01-18T08:43:11.750Z,2.20
2023-01-18T08:45:39.043Z,1.67
2023-01-18T08:48:08.046Z,2.35
2023-01-18T08:50:35.299Z,4.20
2023-01-18T08:53:02.803Z,1.98
2023-01-18T08:55:30.009Z,4.50
2023-01-18T08:57:58.185Z,2.03
2023-01-18T09:00:28.485Z,5.30
2023-01-18T09:05:24.709Z,1.50
2023-01-18T09:07:55.286Z,2.75
2023-01-18T09:10:22.573Z,2.58
2023-01-18T09:12:50.681Z,5.90
2023-01-18T09:15:18.528Z,2.53
2023-01-18T09:17:46.112Z,3.42
2023-01-18T09:20:13.298Z,1.80
2023-01-18T09:22:40.080Z,1.63
2023-01-18T09:25:07.052Z,2.38
2023-01-18T09:27:33.851Z,3.85
2023-01-18T09:30:00.678Z,2.90
2023-01-18T09:32:27.685Z,4.40
2023-01-18T09:34:54.844Z,2.67
2023-01-18T09:37:22.112Z,3.85
2023-01-18T09:39:52.775Z,2.88
2023-01-18T09:42:27.329Z,3.40
2023-01-18T09:44:58.641Z,1.67
2023-01-18T09:47:28.582Z,2.03
2023-01-18T09:49:56.647Z,2.60
2023-01-18T09:55:33.869Z,5.70
2023-01-18T09:58:19.177Z,3.30
2023-01-18T10:00:48.612Z,4.60
2023-01-18T10:03:35.223Z,1.50
2023-01-18T10:06:45.004Z,2.42
2023-01-18T10:09:18.058Z,2.15
2023-01-18T10:12:23.632Z,2.55
2023-01-18T10:14:57.593Z,2.17
2023-01-18T10:17:32.177Z,3.38
2023-01-18T10:20:01.421Z,3.65
2023-01-18T10:23:06.111Z,2.38
2023-01-18T10:26:06.555Z,1.77
2023-01-18T10:28:49.524Z,1.58
2023-01-18T10:31:22.337Z,2.00
2023-01-18T10:33:54.699Z,1.88
2023-01-18T10:36:38.860Z,1.73
2023-01-18T10:39:34.904Z,2.17
2023-01-18T10:42:06.467Z,2.38
2023-01-18T10:44:33.619Z,1.63
2023-01-18T10:47:01.519Z,1.40
2023-01-18T10:49:46.408Z,1.67
2023-01-18T10:52:25.120Z,1.58
2023-01-18T10:55:01.589Z,1.98
2023-01-18T10:57:36.225Z,6.00
2023-01-18T11:00:12.344Z,1.42
2023-01-18T11:02:39.885Z,1.83
2023-01-18T11:05:33.187Z,2.17
2023-01-18T11:08:18.279Z,1.60
2023-01-18T11:10:45.132Z,1.23
2023-01-18T11:13:41.330Z,1.20
2023-01-18T11:16:20.744Z,2.05
2023-01-18T11:19:00.029Z,1.67
2023-01-18T11:21:51.608Z,1.40
2023-01-18T11:24:27.823Z,2.70
2023-01-18T11:27:01.635Z,1.30
2023-01-18T11:29:32.295Z,1.40
2023-01-18T11:32:06.458Z,1.73
2023-01-18T11:34:36.914Z,1.38
2023-01-18T11:37:04.679Z,3.83
2023-01-18T11:39:36.126Z,2.22
2023-01-18T11:42:20.476Z,1.77
2023-01-18T11:44:56.061Z,2.00
2023-01-18T11:48:02.447Z,2.92
2023-01-18T11:50:49.600Z,2.33
2023-01-18T11:53:31.416Z,2.30
2023-01-18T11:56:09.849Z,1.80
2023-01-18T11:58:36.825Z,2.00
2023-01-18T12:01:58.986Z,2.08
2023-01-18T12:04:44.620Z,1.88
2023-01-18T12:07:20.633Z,2.85
2023-01-18T12:09:54.095Z,2.83
2023-01-18T12:12:35.737Z,2.13
2023-01-18T12:15:19.452Z,2.70
2023-01-18T12:18:13.654Z,1.70
2023-01-18T12:21:02.657Z,1.80
2023-01-18T12:23:42.397Z,3.53
2023-01-18T12:26:47.524Z,2.03
2023-01-18T12:29:42.741Z,1.90
2023-01-18T12:32:24.004Z,1.92
2023-01-18T12:35:23.661Z,1.60
2023-01-18T12:37:57.879Z,1.90
2023-01-18T12:40:36.640Z,2.03
2023-01-18T12:43:34.229Z,1.80
2023-01-18T12:46:19.470Z,2.42
2023-01-18T12:48:58.015Z,2.75
2023-01-18T12:51:27.058Z,2.42
2023-01-18T12:54:06.846Z,6.82
2023-01-18T12:56:39.622Z,3.67
2023-01-18T12:59:32.417Z,2.30
2023-01-18T13:02:12.178Z,2.10
2023-01-18T13:04:57.100Z,3.47
2023-01-18T13:07:42.843Z,3.30
2023-01-18T13:10:19.914Z,4.72
2023-01-18T13:12:49.359Z,3.13
2023-01-18T13:15:44.129Z,2.90
2023-01-18T13:18:30.429Z,3.45
2023-01-18T13:21:12.367Z,5.25
2023-01-18T13:23:53.917Z,7.35
2023-01-18T13:26:32.666Z,3.42
2023-01-18T13:29:26.282Z,3.13
2023-01-18T13:31:53.095Z,3.15
2023-01-18T13:34:30.979Z,3.60
2023-01-18T13:37:13.534Z,4.35
2023-01-18T13:39:47.701Z,4.93
2023-01-18T13:42:24.993Z,3.47
2023-01-18T13:45:30.931Z,5.68
2023-01-18T13:48:05.232Z,5.25
2023-01-18T13:50:31.946Z,6.75
2023-01-18T13:53:14.215Z,5.72
2023-01-18T13:55:59.305Z,4.95
2023-01-18T13:58:27.670Z,4.57
2023-01-18T14:00:58.459Z,5.00
2023-01-18T14:03:29.282Z,4.15
2023-01-18T14:05:57.201Z,4.22
2023-01-18T14:08:29.123Z,4.43
2023-01-18T14:11:07.184Z,4.72
2023-01-18T14:13:46.293Z,3.88
2023-01-18T14:16:24.802Z,4.55
2023-01-18T14:18:56.779Z,4.07
2023-01-18T14:21:57.843Z,7.13
2023-01-18T14:24:55.436Z,5.47
2023-01-18T14:27:25.488Z,4.80
2023-01-18T14:30:07.986Z,4.60
2023-01-18T14:32:49.485Z,3.47
2023-01-18T14:35:20.353Z,4.05
2023-01-18T14:37:47.164Z,4.45
2023-01-18T14:40:22.859Z,6.03
2023-01-18T14:42:51.249Z,5.10
2023-01-18T14:45:36.172Z,5.13
2023-01-18T14:48:11.115Z,6.20
2023-01-18T14:50:41.757Z,5.05
2023-01-18T14:53:16.983Z,4.82
2023-01-18T14:56:00.343Z,5.65
2023-01-18T14:58:27.997Z,6.13
2023-01-18T15:00:54.942Z,5.78
2023-01-18T15:03:28.714Z,7.00
2023-01-18T15:06:16.844Z,8.38
2023-01-18T15:08:46.409Z,5.95
2023-01-18T15:11:14.104Z,6.63
2023-01-18T15:13:49.144Z,5.25
2023-01-18T15:16:22.204Z,6.13
2023-01-18T15:18:54.941Z,4.82
2023-01-18T15:21:24.492Z,4.88
2023-01-18T15:23:55.421Z,5.82
2023-01-18T15:26:43.648Z,5.70
2023-01-18T15:29:23.897Z,5.13
2023-01-18T15:31:53.372Z,5.78
2023-01-18T15:34:42.981Z,6.38
2023-01-18T15:37:23.645Z,9.60
2023-01-18T15:39:58.067Z,8.32
2023-01-18T15:42:27.306Z,6.80
2023-01-18T15:44:55.922Z,7.50
2023-01-18T15:47:36.873Z,7.35
2023-01-18T15:50:07.204Z,7.15
2023-01-18T15:53:06.716Z,6.25
2023-01-18T15:55:40.754Z,7.33
2023-01-18T15:58:14.314Z,6.07
2023-01-18T16:00:58.224Z,5.68
2023-01-18T16:03:30.128Z,8.60
2023-01-18T16:06:08.341Z,9.15
2023-01-18T16:08:35.429Z,5.57
2023-01-18T16:11:02.293Z,6.20
2023-01-18T16:13:37.894Z,8.73
2023-01-18T16:16:16.034Z,7.00
2023-01-18T16:18:49.016Z,8.27
2023-01-18T16:21:40.491Z,6.43
2023-01-18T16:24:27.359Z,5.28
2023-01-18T16:26:55.851Z,7.82
2023-01-18T16:29:22.856Z,6.95
2023-01-18T16:31:49.671Z,9.70
2023-01-18T16:34:23.158Z,13.80
2023-01-18T16:36:51.498Z,6.07
2023-01-18T16:39:19.532Z,6.50
2023-01-18T16:41:53.819Z,6.68
2023-01-18T16:44:21.144Z,6.07
2023-01-18T16:46:48.825Z,5.45
2023-01-18T16:49:16.124Z,5.30
2023-01-18T16:51:42.936Z,6.60
2023-01-18T16:54:09.682Z,6.10
2023-01-18T16:56:36.484Z,5.97
2023-01-18T16:59:18.637Z,6.20
2023-01-18T17:01:46.188Z,6.93
2023-01-18T17:04:13.162Z,5.57
2023-01-18T17:06:41.232Z,7.60
2023-01-18T17:09:18.561Z,5.57
2023-01-18T17:11:45.609Z,5.30
2023-01-18T17:14:12.379Z,5.38
2023-01-18T17:16:40.527Z,7.85
2023-01-18T17:19:14.627Z,7.15
2023-01-18T17:21:42.387Z,7.15
2023-01-18T17:24:10.673Z,8.27
2023-01-18T17:26:38.853Z,8.88
2023-01-18T17:29:06.696Z,7.53
2023-01-18T17:31:35.403Z,6.15
2023-01-18T17:34:03.988Z,5.20
2023-01-18T17:36:30.781Z,6.75
2023-01-18T17:38:57.489Z,5.70
2023-01-18T17:41:27.629Z,6.10
2023-01-18T17:43:55.216Z,5.05
2023-01-18T17:46:21.983Z,5.13
2023-01-18T17:48:48.723Z,6.50
2023-01-18T17:51:15.455Z,4.47
2023-01-18T17:53:42.637Z,4.93
2023-01-18T17:56:12.185Z,5.13
2023-01-18T17:58:39.657Z,4.82
2023-01-18T18:01:11.911Z,4.70
2023-01-18T18:03:40.442Z,6.20
2023-01-18T18:06:07.899Z,7.13
2023-01-18T18:08:34.879Z,6.85
2023-01-18T18:11:02.382Z,8.05
2023-01-18T18:13:29.898Z,5.72
2023-01-18T18:15:56.661Z,6.55
2023-01-18T18:18:24.032Z,5.43
2023-01-18T18:21:00.356Z,6.95
2023-01-18T18:23:28.138Z,6.55
2023-01-18T18:25:55.750Z,7.90
2023-01-18T18:28:24.335Z,6.13
2023-01-18T18:30:51.798Z,5.75
2023-01-18T18:33:19.975Z,7.05
2023-01-18T18:35:50.929Z,7.85
2023-01-18T18:38:26.470Z,7.43
2023-01-18T18:40:54.700Z,8.63
2023-01-18T18:43:21.646Z,10.35
2023-01-18T18:45:48.460Z,7.97
2023-01-18T18:48:15.157Z,7.35
2023-01-18T18:50:42.000Z,7.32
2023-01-18T18:53:08.890Z,7.68
2023-01-18T18:55:35.586Z,7.38
2023-01-18T18:58:02.404Z,7.43
2023-01-18T19:00:29.284Z,8.85
2023-01-18T19:03:00.571Z,6.65
2023-01-18T19:05:28.760Z,8.02
2023-01-18T19:07:55.640Z,8.57
2023-01-18T19:10:24.952Z,8.25
2023-01-18T19:12:51.643Z,9.33
2023-01-18T19:15:18.443Z,7.43
2023-01-18T19:17:49.976Z,7.57
2023-01-18T19:20:19.709Z,7.95
2023-01-18T19:22:47.487Z,10.60
2023-01-18T19:25:14.709Z,13.02
2023-01-18T19:27:41.672Z,9.32
2023-01-18T19:30:12.886Z,12.00
2023-01-18T19:32:40.101Z,10.93
2023-01-18T19:35:07.289Z,11.35
2023-01-18T19:37:34.019Z,9.10
2023-01-18T19:40:00.724Z,11.73
2023-01-18T19:42:27.416Z,8.40
2023-01-18T19:44:59.235Z,10.48
2023-01-18T19:47:26.233Z,10.15
2023-01-18T19:49:55.677Z,12.25
2023-01-18T19:52:22.418Z,13.40
2023-01-18T19:54:49.125Z,11.68
2023-01-18T19:57:16.013Z,12.00
2023-01-18T19:59:42.733Z,12.00
2023-01-18T20:02:10.529Z,12.35
2023-01-18T20:04:37.791Z,11.25
2023-01-18T20:07:04.811Z,12.52
2023-01-18T20:09:42.803Z,12.95
2023-01-18T20:12:12.494Z,14.18
2023-01-18T20:14:41.856Z,11.50
2023-01-18T20:17:10.641Z,13.27
2023-01-18T20:19:37.444Z,13.82
2023-01-18T20:22:04.147Z,12.93
2023-01-18T20:24:30.827Z,10.90
2023-01-18T20:27:07.263Z,13.40
2023-01-18T20:29:41.575Z,13.90
2023-01-18T20:32:15.320Z,13.18
2023-01-18T20:34:44.606Z,12.60
2023-01-18T20:37:15.089Z,14.43
2023-01-18T20:39:42.223Z,13.73
2023-01-18T20:42:09.371Z,13.25
2023-01-18T20:44:36.214Z,12.52
2023-01-18T20:47:03.096Z,13.05
2023-01-18T20:49:38.601Z,18.27
2023-01-18T20:52:07.261Z,14.50
2023-01-18T20:54:36.287Z,12.80
2023-01-18T20:57:03.989Z,13.73
2023-01-18T20:59:30.707Z,13.27
2023-01-18T21:01:57.592Z,13.20
2023-01-18T21:04:25.160Z,13.43
2023-01-18T21:06:51.873Z,14.90
2023-01-18T21:09:18.583Z,12.52
2023-01-18T21:11:45.318Z,15.30
2023-01-18T21:14:12.659Z,13.57
2023-01-18T21:16:39.505Z,13.70
2023-01-18T21:19:06.305Z,15.55
2023-01-18T21:21:33.137Z,12.65
2023-01-18T21:24:00.161Z,14.10
2023-01-18T21:26:27.319Z,14.05
2023-01-18T21:28:54.972Z,14.80
2023-01-18T21:31:22.465Z,14.55
2023-01-18T21:33:49.930Z,15.43
2023-01-18T21:36:17.983Z,16.35
2023-01-18T21:38:44.735Z,14.60
2023-01-18T21:41:30.000Z,16.45
2023-01-18T21:44:15.456Z,14.55
2023-01-18T21:46:47.122Z,15.38
2023-01-18T21:49:47.114Z,16.55
2023-01-18T21:52:37.809Z,15.93
2023-01-18T21:55:04.831Z,14.13
2023-01-18T21:57:31.531Z,15.80
2023-01-18T21:59:58.388Z,18.70
2023-01-18T22:02:25.174Z,15.93
2023-01-18T22:05:00.927Z,16.13
2023-01-18T22:07:30.068Z,17.20
2023-01-18T22:10:06.091Z,15.68
2023-01-18T22:12:35.274Z,19.85
2023-01-18T22:15:04.298Z,18.33
2023-01-18T22:17:31.315Z,18.88
2023-01-18T22:19:58.025Z,17.63
2023-01-18T22:22:24.750Z,17.92
2023-01-18T22:24:51.761Z,19.88
2023-01-18T22:27:18.490Z,17.30
2023-01-18T22:29:45.338Z,19.33
2023-01-18T22:32:12.246Z,18.70
2023-01-18T22:37:06.889Z,20.40
2023-01-18T22:39:33.587Z,18.13
2023-01-18T22:42:00.304Z,18.48
2023-01-18T22:44:27.038Z,19.30
2023-01-18T22:46:53.697Z,19.30
2023-01-18T22:49:20.376Z,23.13
2023-01-18T22:51:47.058Z,19.70
2023-01-18T22:54:14.894Z,17.65
2023-01-18T22:56:41.729Z,19.73
2023-01-18T22:59:08.720Z,19.05
2023-01-18T23:01:35.499Z,18.45
2023-01-18T23:04:04.002Z,19.38
2023-01-18T23:06:50.511Z,20.58
2023-01-18T23:09:17.620Z,22.17
2023-01-18T23:11:45.621Z,20.88
2023-01-18T23:14:30.792Z,19.90
2023-01-18T23:17:16.108Z,21.48
2023-01-18T23:19:42.859Z,19.65
2023-01-18T23:22:10.560Z,21.35
2023-01-18T23:24:38.510Z,23.92
2023-01-18T23:27:07.166Z,21.25
2023-01-18T23:29:34.209Z,24.55
2023-01-18T23:32:01.124Z,22.88
2023-01-18T23:34:27.986Z,20.45
2023-01-18T23:36:55.115Z,21.58
2023-01-18T23:39:40.397Z,18.70
2023-01-18T23:42:25.897Z,16.73
2023-01-18T23:45:11.198Z,20.10
2023-01-18T23:47:56.596Z,19.48
2023-01-18T23:50:42.452Z,17.15
2023-01-18T23:53:32.037Z,17.17
2023-01-18T23:55:59.494Z,18.80
2023-01-18T23:58:26.726Z,17.35
